sensor_id;sensor_type;location;lat;lon;timestamp;P1;durP1;ratioP1;P2;durP2;ratioP2
3777;SDS011;1904;50.076;8.660;2023-04-25T00:01:39;7.40;;;5.20;;
3777;SDS011;1904;50.076;8.660;2023-04-25T00:04:05;7.70;;;5.30;;
3777;SDS011;1904;50.076;8.660;2023-04-25T00:06:32;9.30;;;5.70;;
3777;SDS011;1904;50.076;8.660;2023-04-25T00:09:01;8.73;;;5.80;;
3777;SDS011;1904;50.076;8.660;2023-04-25T00:11:28;10.17;;;6.73;;
3777;SDS011;1904;50.076;8.660;2023-04-25T00:32:47;7.60;;;4.90;;
3777;SDS011;1904;50.076;8.660;2023-04-25T00:38:06;7.20;;;4.73;;
3777;SDS011;1904;50.076;8.660;2023-04-25T00:44:00;6.80;;;4.70;;
3777;SDS011;1904;50.076;8.660;2023-04-25T00:46:27;5.70;;;3.97;;
3777;SDS011;1904;50.076;8.660;2023-04-25T00:48:54;6.67;;;4.90;;
3777;SDS011;1904;50.076;8.660;2023-04-25T00:51:20;4.90;;;4.40;;
3777;SDS011;1904;50.076;8.660;2023-04-25T00:53:49;9.00;;;4.83;;
3777;SDS011;1904;50.076;8.660;2023-04-25T00:56:15;6.60;;;4.90;;
3777;SDS011;1904;50.076;8.660;2023-04-25T01:07:38;6.10;;;3.90;;
3777;SDS011;1904;50.076;8.660;2023-04-25T01:16:24;6.50;;;4.80;;
3777;SDS011;1904;50.076;8.660;2023-04-25T01:21:48;7.47;;;5.27;;
3777;SDS011;1904;50.076;8.660;2023-04-25T01:30:02;8.07;;;5.30;;
3777;SDS011;1904;50.076;8.660;2023-04-25T01:32:30;7.97;;;5.00;;
3777;SDS011;1904;50.076;8.660;2023-04-25T01:35:07;9.73;;;5.17;;
3777;SDS011;1904;50.076;8.660;2023-04-25T01:37:36;10.70;;;5.20;;
3777;SDS011;1904;50.076;8.660;2023-04-25T01:40:05;6.27;;;4.93;;
3777;SDS011;1904;50.076;8.660;2023-04-25T01:42:42;7.80;;;5.33;;
3777;SDS011;1904;50.076;8.660;2023-04-25T01:45:18;8.50;;;4.80;;
3777;SDS011;1904;50.076;8.660;2023-04-25T01:47:44;7.40;;;4.83;;
3777;SDS011;1904;50.076;8.660;2023-04-25T01:50:14;10.10;;;5.23;;
3777;SDS011;1904;50.076;8.660;2023-04-25T01:52:41;7.30;;;5.27;;
3777;SDS011;1904;50.076;8.660;2023-04-25T01:55:07;9.83;;;5.63;;
3777;SDS011;1904;50.076;8.660;2023-04-25T01:57:34;10.63;;;5.80;;
3777;SDS011;1904;50.076;8.660;2023-04-25T02:02:57;9.77;;;5.47;;
3777;SDS011;1904;50.076;8.660;2023-04-25T02:11:43;7.93;;;5.37;;
3777;SDS011;1904;50.076;8.660;2023-04-25T02:17:12;8.70;;;5.13;;
3777;SDS011;1904;50.076;8.660;2023-04-25T02:32:22;8.90;;;5.60;;
3777;SDS011;1904;50.076;8.660;2023-04-25T02:34:48;10.20;;;6.53;;
3777;SDS011;1904;50.076;8.660;2023-04-25T02:43:12;14.23;;;7.27;;
3777;SDS011;1904;50.076;8.660;2023-04-25T02:45:48;12.47;;;6.80;;
3777;SDS011;1904;50.076;8.660;2023-04-25T02:48:18;9.70;;;6.43;;
3777;SDS011;1904;50.076;8.660;2023-04-25T02:50:44;10.67;;;6.80;;
3777;SDS011;1904;50.076;8.660;2023-04-25T02:53:12;11.60;;;7.20;;
3777;SDS011;1904;50.076;8.660;2023-04-25T02:55:42;20.70;;;7.33;;
3777;SDS011;1904;50.076;8.660;2023-04-25T02:58:12;12.20;;;8.10;;
3777;SDS011;1904;50.076;8.660;2023-04-25T03:03:42;11.60;;;7.33;;
3777;SDS011;1904;50.076;8.660;2023-04-25T03:06:18;12.80;;;7.27;;
3777;SDS011;1904;50.076;8.660;2023-04-25T03:14:59;13.00;;;7.57;;
3777;SDS011;1904;50.076;8.660;2023-04-25T03:17:42;14.73;;;7.20;;
3777;SDS011;1904;50.076;8.660;2023-04-25T03:28:56;15.27;;;8.40;;
3777;SDS011;1904;50.076;8.660;2023-04-25T03:31:24;24.60;;;7.90;;
3777;SDS011;1904;50.076;8.660;2023-04-25T03:33:54;31.67;;;8.50;;
3777;SDS011;1904;50.076;8.660;2023-04-25T03:36:30;15.53;;;7.90;;
3777;SDS011;1904;50.076;8.660;2023-04-25T03:38:57;13.80;;;7.73;;
3777;SDS011;1904;50.076;8.660;2023-04-25T03:41:24;16.90;;;7.90;;
3777;SDS011;1904;50.076;8.660;2023-04-25T03:47:30;15.03;;;7.67;;
3777;SDS011;1904;50.076;8.660;2023-04-25T03:50:12;13.70;;;7.40;;
3777;SDS011;1904;50.076;8.660;2023-04-25T03:55:48;14.27;;;7.80;;
3777;SDS011;1904;50.076;8.660;2023-04-25T04:01:30;13.60;;;7.23;;
3777;SDS011;1904;50.076;8.660;2023-04-25T04:04:12;10.90;;;7.30;;
3777;SDS011;1904;50.076;8.660;2023-04-25T04:06:48;13.83;;;7.10;;
3777;SDS011;1904;50.076;8.660;2023-04-25T04:12:48;13.93;;;7.33;;
3777;SDS011;1904;50.076;8.660;2023-04-25T04:15:14;13.80;;;7.27;;
3777;SDS011;1904;50.076;8.660;2023-04-25T04:17:42;16.93;;;7.67;;
3777;SDS011;1904;50.076;8.660;2023-04-25T04:20:12;14.83;;;6.37;;
3777;SDS011;1904;50.076;8.660;2023-04-25T04:32:02;16.23;;;7.13;;
3777;SDS011;1904;50.076;8.660;2023-04-25T04:43:38;9.63;;;6.13;;
3777;SDS011;1904;50.076;8.660;2023-04-25T04:46:06;14.03;;;6.43;;
3777;SDS011;1904;50.076;8.660;2023-04-25T04:48:32;18.53;;;7.73;;
3777;SDS011;1904;50.076;8.660;2023-04-25T04:56:38;14.40;;;6.80;;
3777;SDS011;1904;50.076;8.660;2023-04-25T04:59:12;17.37;;;6.23;;
3777;SDS011;1904;50.076;8.660;2023-04-25T05:05:06;16.27;;;8.97;;
3777;SDS011;1904;50.076;8.660;2023-04-25T05:07:42;15.20;;;7.77;;
3777;SDS011;1904;50.076;8.660;2023-04-25T05:10:12;13.50;;;6.90;;
3777;SDS011;1904;50.076;8.660;2023-04-25T05:18:42;13.43;;;6.67;;
3777;SDS011;1904;50.076;8.660;2023-04-25T05:21:12;13.30;;;7.03;;
3777;SDS011;1904;50.076;8.660;2023-04-25T05:26:42;15.90;;;6.20;;
3777;SDS011;1904;50.076;8.660;2023-04-25T05:32:42;11.97;;;5.63;;
3777;SDS011;1904;50.076;8.660;2023-04-25T05:35:12;17.57;;;6.03;;
3777;SDS011;1904;50.076;8.660;2023-04-25T05:41:12;12.00;;;6.20;;
3777;SDS011;1904;50.076;8.660;2023-04-25T05:43:38;13.37;;;6.37;;
3777;SDS011;1904;50.076;8.660;2023-04-25T05:46:12;10.67;;;6.03;;
3777;SDS011;1904;50.076;8.660;2023-04-25T05:51:42;18.67;;;6.30;;
3777;SDS011;1904;50.076;8.660;2023-04-25T05:57:30;13.57;;;5.70;;
3777;SDS011;1904;50.076;8.660;2023-04-25T06:00:13;21.43;;;5.70;;
3777;SDS011;1904;50.076;8.660;2023-04-25T06:05:41;13.87;;;6.00;;
3777;SDS011;1904;50.076;8.660;2023-04-25T06:08:12;19.57;;;5.87;;
3777;SDS011;1904;50.076;8.660;2023-04-25T06:13:42;11.60;;;5.50;;
3777;SDS011;1904;50.076;8.660;2023-04-25T06:16:12;9.00;;;5.30;;
3777;SDS011;1904;50.076;8.660;2023-04-25T06:18:38;10.00;;;5.23;;
3777;SDS011;1904;50.076;8.660;2023-04-25T06:21:04;12.70;;;5.43;;
3777;SDS011;1904;50.076;8.660;2023-04-25T06:23:30;8.10;;;4.83;;
3777;SDS011;1904;50.076;8.660;2023-04-25T06:25:55;8.20;;;5.07;;
3777;SDS011;1904;50.076;8.660;2023-04-25T06:28:21;11.27;;;5.40;;
3777;SDS011;1904;50.076;8.660;2023-04-25T06:33:54;13.20;;;5.20;;
3777;SDS011;1904;50.076;8.660;2023-04-25T06:36:20;13.30;;;5.50;;
3777;SDS011;1904;50.076;8.660;2023-04-25T06:41:42;10.10;;;5.23;;
3777;SDS011;1904;50.076;8.660;2023-04-25T06:44:12;11.63;;;5.10;;
3777;SDS011;1904;50.076;8.660;2023-04-25T06:46:42;14.97;;;5.57;;
3777;SDS011;1904;50.076;8.660;2023-04-25T06:49:18;13.73;;;6.20;;
3777;SDS011;1904;50.076;8.660;2023-04-25T06:54:42;10.33;;;5.43;;
3777;SDS011;1904;50.076;8.660;2023-04-25T06:57:08;14.90;;;5.30;;
3777;SDS011;1904;50.076;8.660;2023-04-25T06:59:34;10.70;;;5.40;;
3777;SDS011;1904;50.076;8.660;2023-04-25T07:02:12;10.80;;;4.90;;
3777;SDS011;1904;50.076;8.660;2023-04-25T07:04:42;15.67;;;5.47;;
3777;SDS011;1904;50.076;8.660;2023-04-25T07:13:12;6.30;;;4.77;;
3777;SDS011;1904;50.076;8.660;2023-04-25T07:15:43;6.50;;;4.33;;
3777;SDS011;1904;50.076;8.660;2023-04-25T07:18:12;10.73;;;4.93;;
3777;SDS011;1904;50.076;8.660;2023-04-25T07:20:43;7.60;;;3.90;;
3777;SDS011;1904;50.076;8.660;2023-04-25T07:26:17;11.90;;;4.20;;
3777;SDS011;1904;50.076;8.660;2023-04-25T07:35:12;6.20;;;3.90;;
3777;SDS011;1904;50.076;8.660;2023-04-25T07:37:43;7.60;;;4.27;;
3777;SDS011;1904;50.076;8.660;2023-04-25T07:43:12;6.10;;;3.37;;
3777;SDS011;1904;50.076;8.660;2023-04-25T07:45:43;8.50;;;3.90;;
3777;SDS011;1904;50.076;8.660;2023-04-25T07:48:09;5.60;;;3.50;;
3777;SDS011;1904;50.076;8.660;2023-04-25T07:50:42;9.20;;;4.17;;
3777;SDS011;1904;50.076;8.660;2023-04-25T07:56:33;8.80;;;4.27;;
3777;SDS011;1904;50.076;8.660;2023-04-25T07:59:12;9.57;;;3.87;;
3777;SDS011;1904;50.076;8.660;2023-04-25T08:01:42;9.63;;;3.60;;
3777;SDS011;1904;50.076;8.660;2023-04-25T08:04:12;9.97;;;4.33;;
3777;SDS011;1904;50.076;8.660;2023-04-25T08:09:36;6.73;;;3.30;;
3777;SDS011;1904;50.076;8.660;2023-04-25T08:12:12;6.53;;;3.20;;
3777;SDS011;1904;50.076;8.660;2023-04-25T08:14:42;8.20;;;3.50;;
3777;SDS011;1904;50.076;8.660;2023-04-25T08:17:12;5.83;;;2.80;;
3777;SDS011;1904;50.076;8.660;2023-04-25T08:19:43;4.37;;;2.90;;
3777;SDS011;1904;50.076;8.660;2023-04-25T08:22:09;9.47;;;3.60;;
3777;SDS011;1904;50.076;8.660;2023-04-25T08:27:57;5.20;;;2.73;;
3777;SDS011;1904;50.076;8.660;2023-04-25T08:33:46;6.80;;;3.03;;
3777;SDS011;1904;50.076;8.660;2023-04-25T08:36:12;5.00;;;2.93;;
3777;SDS011;1904;50.076;8.660;2023-04-25T08:38:43;4.27;;;3.03;;
3777;SDS011;1904;50.076;8.660;2023-04-25T08:44:13;7.87;;;2.67;;
3777;SDS011;1904;50.076;8.660;2023-04-25T08:46:43;5.23;;;2.77;;
3777;SDS011;1904;50.076;8.660;2023-04-25T08:52:43;4.50;;;2.70;;
3777;SDS011;1904;50.076;8.660;2023-04-25T08:55:17;2.50;;;2.17;;
3777;SDS011;1904;50.076;8.660;2023-04-25T08:57:44;6.50;;;2.60;;
3777;SDS011;1904;50.076;8.660;2023-04-25T09:00:13;4.20;;;2.80;;
3777;SDS011;1904;50.076;8.660;2023-04-25T09:02:49;5.53;;;3.20;;
3777;SDS011;1904;50.076;8.660;2023-04-25T09:05:18;3.33;;;2.47;;
3777;SDS011;1904;50.076;8.660;2023-04-25T09:10:42;3.97;;;2.70;;
3777;SDS011;1904;50.076;8.660;2023-04-25T09:13:13;6.40;;;3.67;;
3777;SDS011;1904;50.076;8.660;2023-04-25T09:15:52;3.70;;;2.97;;
3777;SDS011;1904;50.076;8.660;2023-04-25T09:21:13;9.00;;;3.00;;
3777;SDS011;1904;50.076;8.660;2023-04-25T09:23:46;4.27;;;2.60;;
3777;SDS011;1904;50.076;8.660;2023-04-25T09:26:17;5.63;;;3.07;;
3777;SDS011;1904;50.076;8.660;2023-04-25T09:28:44;4.80;;;3.17;;
3777;SDS011;1904;50.076;8.660;2023-04-25T09:31:11;5.83;;;3.13;;
3777;SDS011;1904;50.076;8.660;2023-04-25T09:33:37;4.97;;;3.47;;
3777;SDS011;1904;50.076;8.660;2023-04-25T09:36:04;3.23;;;2.93;;
3777;SDS011;1904;50.076;8.660;2023-04-25T09:38:41;8.27;;;3.30;;
3777;SDS011;1904;50.076;8.660;2023-04-25T09:41:10;5.40;;;3.40;;
3777;SDS011;1904;50.076;8.660;2023-04-25T09:43:37;4.73;;;3.60;;
3777;SDS011;1904;50.076;8.660;2023-04-25T09:46:07;6.40;;;3.80;;
3777;SDS011;1904;50.076;8.660;2023-04-25T09:48:34;5.60;;;3.27;;
3777;SDS011;1904;50.076;8.660;2023-04-25T09:53:29;8.97;;;3.67;;
3777;SDS011;1904;50.076;8.660;2023-04-25T09:56:03;4.70;;;3.03;;
3777;SDS011;1904;50.076;8.660;2023-04-25T09:58:33;9.37;;;3.60;;
3777;SDS011;1904;50.076;8.660;2023-04-25T10:01:02;8.10;;;3.63;;
3777;SDS011;1904;50.076;8.660;2023-04-25T10:03:30;10.73;;;3.87;;
3777;SDS011;1904;50.076;8.660;2023-04-25T10:05:59;6.50;;;3.90;;
3777;SDS011;1904;50.076;8.660;2023-04-25T10:08:27;3.60;;;3.13;;
3777;SDS011;1904;50.076;8.660;2023-04-25T10:11:01;11.03;;;3.90;;
3777;SDS011;1904;50.076;8.660;2023-04-25T10:13:48;4.80;;;3.30;;
3777;SDS011;1904;50.076;8.660;2023-04-25T10:16:16;10.53;;;3.00;;
3777;SDS011;1904;50.076;8.660;2023-04-25T10:18:43;4.93;;;3.57;;
3777;SDS011;1904;50.076;8.660;2023-04-25T10:21:09;4.03;;;3.20;;
3777;SDS011;1904;50.076;8.660;2023-04-25T10:23:36;7.30;;;3.57;;
3777;SDS011;1904;50.076;8.660;2023-04-25T10:26:02;3.10;;;2.80;;
3777;SDS011;1904;50.076;8.660;2023-04-25T10:28:29;8.97;;;3.30;;
3777;SDS011;1904;50.076;8.660;2023-04-25T10:30:58;4.80;;;3.10;;
3777;SDS011;1904;50.076;8.660;2023-04-25T10:33:38;3.03;;;2.73;;
3777;SDS011;1904;50.076;8.660;2023-04-25T10:38:49;5.03;;;3.30;;
3777;SDS011;1904;50.076;8.660;2023-04-25T10:41:17;7.50;;;3.67;;
3777;SDS011;1904;50.076;8.660;2023-04-25T10:43:44;6.37;;;3.13;;
3777;SDS011;1904;50.076;8.660;2023-04-25T10:46:29;5.83;;;3.33;;
3777;SDS011;1904;50.076;8.660;2023-04-25T10:48:57;4.40;;;3.33;;
3777;SDS011;1904;50.076;8.660;2023-04-25T10:51:27;5.97;;;3.83;;
3777;SDS011;1904;50.076;8.660;2023-04-25T10:54:01;7.50;;;3.70;;
3777;SDS011;1904;50.076;8.660;2023-04-25T10:56:39;6.97;;;3.90;;
3777;SDS011;1904;50.076;8.660;2023-04-25T10:59:10;8.03;;;3.87;;
3777;SDS011;1904;50.076;8.660;2023-04-25T11:01:37;7.60;;;4.10;;
3777;SDS011;1904;50.076;8.660;2023-04-25T11:04:32;7.30;;;4.03;;
3777;SDS011;1904;50.076;8.660;2023-04-25T11:10:25;4.93;;;3.53;;
3777;SDS011;1904;50.076;8.660;2023-04-25T11:13:01;10.47;;;3.87;;
3777;SDS011;1904;50.076;8.660;2023-04-25T11:15:37;6.50;;;3.17;;
3777;SDS011;1904;50.076;8.660;2023-04-25T11:18:02;6.80;;;3.47;;
3777;SDS011;1904;50.076;8.660;2023-04-25T11:20:28;5.47;;;3.70;;
3777;SDS011;1904;50.076;8.660;2023-04-25T11:23:01;6.03;;;3.60;;
3777;SDS011;1904;50.076;8.660;2023-04-25T11:25:31;5.70;;;3.17;;
3777;SDS011;1904;50.076;8.660;2023-04-25T11:28:01;5.17;;;3.23;;
3777;SDS011;1904;50.076;8.660;2023-04-25T11:30:26;3.50;;;2.77;;
3777;SDS011;1904;50.076;8.660;2023-04-25T11:32:53;4.60;;;2.63;;
3777;SDS011;1904;50.076;8.660;2023-04-25T11:35:20;4.40;;;2.80;;
3777;SDS011;1904;50.076;8.660;2023-04-25T11:37:48;5.87;;;3.20;;
3777;SDS011;1904;50.076;8.660;2023-04-25T11:40:14;3.60;;;3.20;;
3777;SDS011;1904;50.076;8.660;2023-04-25T11:42:43;5.00;;;2.83;;
3777;SDS011;1904;50.076;8.660;2023-04-25T11:45:18;4.60;;;2.97;;
3777;SDS011;1904;50.076;8.660;2023-04-25T11:48:01;5.90;;;3.07;;
3777;SDS011;1904;50.076;8.660;2023-04-25T11:50:38;8.50;;;3.20;;
3777;SDS011;1904;50.076;8.660;2023-04-25T11:53:04;5.50;;;3.43;;
3777;SDS011;1904;50.076;8.660;2023-04-25T11:55:31;5.23;;;3.03;;
3777;SDS011;1904;50.076;8.660;2023-04-25T11:57:58;7.37;;;3.13;;
3777;SDS011;1904;50.076;8.660;2023-04-25T12:00:31;8.13;;;2.63;;
3777;SDS011;1904;50.076;8.660;2023-04-25T12:02:57;11.77;;;3.20;;
3777;SDS011;1904;50.076;8.660;2023-04-25T12:05:37;5.70;;;2.63;;
3777;SDS011;1904;50.076;8.660;2023-04-25T12:08:13;3.67;;;2.70;;
3777;SDS011;1904;50.076;8.660;2023-04-25T12:10:40;6.17;;;3.20;;
3777;SDS011;1904;50.076;8.660;2023-04-25T12:13:25;6.83;;;3.17;;
3777;SDS011;1904;50.076;8.660;2023-04-25T12:15:56;3.47;;;2.67;;
3777;SDS011;1904;50.076;8.660;2023-04-25T12:18:24;7.83;;;3.47;;
3777;SDS011;1904;50.076;8.660;2023-04-25T12:20:53;9.27;;;3.63;;
3777;SDS011;1904;50.076;8.660;2023-04-25T12:26:25;6.07;;;3.13;;
3777;SDS011;1904;50.076;8.660;2023-04-25T12:29:01;4.77;;;3.30;;
3777;SDS011;1904;50.076;8.660;2023-04-25T12:31:31;6.83;;;3.03;;
3777;SDS011;1904;50.076;8.660;2023-04-25T12:33:57;6.20;;;3.20;;
3777;SDS011;1904;50.076;8.660;2023-04-25T12:36:25;4.73;;;3.20;;
3777;SDS011;1904;50.076;8.660;2023-04-25T12:38:50;8.60;;;3.27;;
3777;SDS011;1904;50.076;8.660;2023-04-25T12:41:25;5.77;;;2.63;;
3777;SDS011;1904;50.076;8.660;2023-04-25T12:43:50;3.93;;;2.50;;
3777;SDS011;1904;50.076;8.660;2023-04-25T12:46:25;6.50;;;3.07;;
3777;SDS011;1904;50.076;8.660;2023-04-25T12:48:55;8.53;;;3.33;;
3777;SDS011;1904;50.076;8.660;2023-04-25T12:51:31;9.63;;;3.90;;
3777;SDS011;1904;50.076;8.660;2023-04-25T12:53:58;7.73;;;3.80;;
3777;SDS011;1904;50.076;8.660;2023-04-25T12:56:25;9.10;;;3.00;;
3777;SDS011;1904;50.076;8.660;2023-04-25T12:58:52;3.23;;;2.63;;
3777;SDS011;1904;50.076;8.660;2023-04-25T13:01:19;7.17;;;3.20;;
3777;SDS011;1904;50.076;8.660;2023-04-25T13:03:45;7.87;;;2.60;;
3777;SDS011;1904;50.076;8.660;2023-04-25T13:06:12;5.90;;;2.93;;
3777;SDS011;1904;50.076;8.660;2023-04-25T13:12:07;6.40;;;2.73;;
3777;SDS011;1904;50.076;8.660;2023-04-25T13:14:33;9.03;;;3.03;;
3777;SDS011;1904;50.076;8.660;2023-04-25T13:17:01;11.23;;;3.20;;
3777;SDS011;1904;50.076;8.660;2023-04-25T13:19:31;6.90;;;2.80;;
3777;SDS011;1904;50.076;8.660;2023-04-25T13:28:32;3.67;;;2.60;;
3777;SDS011;1904;50.076;8.660;2023-04-25T13:30:58;7.90;;;3.37;;
3777;SDS011;1904;50.076;8.660;2023-04-25T13:33:24;3.77;;;3.10;;
3777;SDS011;1904;50.076;8.660;2023-04-25T13:45:25;4.63;;;3.00;;
3777;SDS011;1904;50.076;8.660;2023-04-25T13:50:45;5.57;;;3.50;;
3777;SDS011;1904;50.076;8.660;2023-04-25T13:53:13;5.20;;;3.20;;
3777;SDS011;1904;50.076;8.660;2023-04-25T13:55:43;8.90;;;3.50;;
3777;SDS011;1904;50.076;8.660;2023-04-25T13:58:08;6.03;;;3.27;;
3777;SDS011;1904;50.076;8.660;2023-04-25T14:00:37;6.10;;;3.23;;
3777;SDS011;1904;50.076;8.660;2023-04-25T14:03:07;8.43;;;3.20;;
3777;SDS011;1904;50.076;8.660;2023-04-25T14:08:43;6.17;;;3.27;;
3777;SDS011;1904;50.076;8.660;2023-04-25T14:11:13;5.20;;;3.13;;
3777;SDS011;1904;50.076;8.660;2023-04-25T14:13:43;8.00;;;3.20;;
3777;SDS011;1904;50.076;8.660;2023-04-25T14:16:13;5.83;;;2.93;;
3777;SDS011;1904;50.076;8.660;2023-04-25T14:18:38;5.93;;;3.30;;
3777;SDS011;1904;50.076;8.660;2023-04-25T14:21:05;5.90;;;3.07;;
3777;SDS011;1904;50.076;8.660;2023-04-25T14:23:37;5.47;;;2.53;;
3777;SDS011;1904;50.076;8.660;2023-04-25T14:26:13;4.53;;;2.10;;
3777;SDS011;1904;50.076;8.660;2023-04-25T14:31:43;5.70;;;2.67;;
3777;SDS011;1904;50.076;8.660;2023-04-25T14:34:13;2.40;;;2.00;;
3777;SDS011;1904;50.076;8.660;2023-04-25T14:36:43;6.30;;;2.00;;
3777;SDS011;1904;50.076;8.660;2023-04-25T14:39:13;2.73;;;1.93;;
3777;SDS011;1904;50.076;8.660;2023-04-25T14:41:55;4.60;;;2.33;;
3777;SDS011;1904;50.076;8.660;2023-04-25T14:47:43;7.67;;;2.20;;
3777;SDS011;1904;50.076;8.660;2023-04-25T14:50:13;7.43;;;2.60;;
3777;SDS011;1904;50.076;8.660;2023-04-25T14:55:55;4.50;;;2.30;;
3777;SDS011;1904;50.076;8.660;2023-04-25T14:58:20;6.73;;;1.97;;
3777;SDS011;1904;50.076;8.660;2023-04-25T15:03:43;11.80;;;2.40;;
3777;SDS011;1904;50.076;8.660;2023-04-25T15:06:13;3.00;;;2.50;;
3777;SDS011;1904;50.076;8.660;2023-04-25T15:08:43;7.27;;;2.47;;
3777;SDS011;1904;50.076;8.660;2023-04-25T15:11:13;9.57;;;2.27;;
3777;SDS011;1904;50.076;8.660;2023-04-25T15:13:43;5.03;;;2.20;;
3777;SDS011;1904;50.076;8.660;2023-04-25T15:16:13;6.80;;;2.50;;
3777;SDS011;1904;50.076;8.660;2023-04-25T15:18:43;3.93;;;2.93;;
3777;SDS011;1904;50.076;8.660;2023-04-25T15:21:13;8.43;;;3.37;;
3777;SDS011;1904;50.076;8.660;2023-04-25T15:29:43;6.30;;;2.33;;
3777;SDS011;1904;50.076;8.660;2023-04-25T15:32:13;2.90;;;2.40;;
3777;SDS011;1904;50.076;8.660;2023-04-25T15:43:37;5.93;;;2.00;;
3777;SDS011;1904;50.076;8.660;2023-04-25T15:46:13;8.03;;;2.33;;
3777;SDS011;1904;50.076;8.660;2023-04-25T15:48:43;6.07;;;2.20;;
3777;SDS011;1904;50.076;8.660;2023-04-25T15:51:13;7.57;;;2.70;;
3777;SDS011;1904;50.076;8.660;2023-04-25T15:53:43;3.30;;;1.90;;
3777;SDS011;1904;50.076;8.660;2023-04-25T15:59:09;9.07;;;1.80;;
3777;SDS011;1904;50.076;8.660;2023-04-25T16:01:43;2.73;;;1.83;;
3777;SDS011;1904;50.076;8.660;2023-04-25T16:04:09;4.90;;;2.20;;
3777;SDS011;1904;50.076;8.660;2023-04-25T16:06:43;6.40;;;1.83;;
3777;SDS011;1904;50.076;8.660;2023-04-25T16:18:43;7.10;;;1.93;;
3777;SDS011;1904;50.076;8.660;2023-04-25T16:21:13;5.33;;;1.60;;
3777;SDS011;1904;50.076;8.660;2023-04-25T16:23:43;8.53;;;1.80;;
3777;SDS011;1904;50.076;8.660;2023-04-25T16:29:43;6.20;;;1.67;;
3777;SDS011;1904;50.076;8.660;2023-04-25T16:32:13;3.80;;;1.70;;
3777;SDS011;1904;50.076;8.660;2023-04-25T16:34:43;4.97;;;1.80;;
3777;SDS011;1904;50.076;8.660;2023-04-25T16:52:41;11.80;;;2.80;;
3777;SDS011;1904;50.076;8.660;2023-04-25T16:55:18;5.03;;;1.90;;
3777;SDS011;1904;50.076;8.660;2023-04-25T16:57:43;5.97;;;1.77;;
3777;SDS011;1904;50.076;8.660;2023-04-25T17:00:19;5.37;;;1.80;;
3777;SDS011;1904;50.076;8.660;2023-04-25T17:08:54;5.40;;;2.20;;
3777;SDS011;1904;50.076;8.660;2023-04-25T17:17:36;4.53;;;1.87;;
3777;SDS011;1904;50.076;8.660;2023-04-25T17:23:24;5.47;;;2.20;;
3777;SDS011;1904;50.076;8.660;2023-04-25T17:35:55;9.33;;;1.70;;
3777;SDS011;1904;50.076;8.660;2023-04-25T17:45:05;2.97;;;1.70;;
3777;SDS011;1904;50.076;8.660;2023-04-25T18:00:02;3.03;;;1.67;;
3777;SDS011;1904;50.076;8.660;2023-04-25T18:02:49;3.60;;;1.57;;
3777;SDS011;1904;50.076;8.660;2023-04-25T18:08:37;10.20;;;1.63;;
3777;SDS011;1904;50.076;8.660;2023-04-25T18:11:19;4.73;;;1.80;;
3777;SDS011;1904;50.076;8.660;2023-04-25T18:13:49;6.27;;;2.47;;
3777;SDS011;1904;50.076;8.660;2023-04-25T18:23:01;4.53;;;2.00;;
3777;SDS011;1904;50.076;8.660;2023-04-25T18:32:10;6.67;;;2.23;;
3777;SDS011;1904;50.076;8.660;2023-04-25T18:40:37;7.17;;;1.63;;
3777;SDS011;1904;50.076;8.660;2023-04-25T18:43:13;5.83;;;1.83;;
3777;SDS011;1904;50.076;8.660;2023-04-25T18:45:43;4.27;;;1.77;;
3777;SDS011;1904;50.076;8.660;2023-04-25T18:51:30;4.87;;;1.60;;
3777;SDS011;1904;50.076;8.660;2023-04-25T18:57:25;11.60;;;2.10;;
3777;SDS011;1904;50.076;8.660;2023-04-25T19:09:25;4.30;;;1.63;;
3777;SDS011;1904;50.076;8.660;2023-04-25T19:11:55;4.87;;;1.70;;
3777;SDS011;1904;50.076;8.660;2023-04-25T19:14:25;6.37;;;2.30;;
3777;SDS011;1904;50.076;8.660;2023-04-25T19:22:55;4.50;;;1.60;;
3777;SDS011;1904;50.076;8.660;2023-04-25T19:31:09;8.30;;;2.07;;
3777;SDS011;1904;50.076;8.660;2023-04-25T19:46:20;2.33;;;1.87;;
3777;SDS011;1904;50.076;8.660;2023-04-25T19:48:55;2.90;;;1.80;;
3777;SDS011;1904;50.076;8.660;2023-04-25T19:51:37;2.40;;;1.60;;
3777;SDS011;1904;50.076;8.660;2023-04-25T19:54:03;3.17;;;1.50;;
3777;SDS011;1904;50.076;8.660;2023-04-25T20:03:07;6.33;;;1.73;;
3777;SDS011;1904;50.076;8.660;2023-04-25T20:24:55;2.10;;;1.47;;
3777;SDS011;1904;50.076;8.660;2023-04-25T20:27:25;3.37;;;1.30;;
3777;SDS011;1904;50.076;8.660;2023-04-25T20:29:51;6.83;;;1.50;;
3777;SDS011;1904;50.076;8.660;2023-04-25T20:32:16;2.00;;;1.47;;
3777;SDS011;1904;50.076;8.660;2023-04-25T20:34:42;3.83;;;1.50;;
3777;SDS011;1904;50.076;8.660;2023-04-25T20:37:08;7.57;;;1.90;;
3777;SDS011;1904;50.076;8.660;2023-04-25T20:39:33;4.70;;;1.40;;
3777;SDS011;1904;50.076;8.660;2023-04-25T20:41:59;9.97;;;1.90;;
3777;SDS011;1904;50.076;8.660;2023-04-25T20:44:25;2.43;;;1.70;;
3777;SDS011;1904;50.076;8.660;2023-04-25T20:46:55;1.70;;;1.50;;
3777;SDS011;1904;50.076;8.660;2023-04-25T20:49:25;4.00;;;1.80;;
3777;SDS011;1904;50.076;8.660;2023-04-25T20:51:51;2.13;;;1.90;;
3777;SDS011;1904;50.076;8.660;2023-04-25T20:54:31;2.30;;;1.50;;
3777;SDS011;1904;50.076;8.660;2023-04-25T20:57:13;7.60;;;1.60;;
3777;SDS011;1904;50.076;8.660;2023-04-25T20:59:49;2.83;;;1.50;;
3777;SDS011;1904;50.076;8.660;2023-04-25T21:05:25;3.30;;;1.60;;
3777;SDS011;1904;50.076;8.660;2023-04-25T21:07:55;3.10;;;1.70;;
3777;SDS011;1904;50.076;8.660;2023-04-25T21:10:37;2.03;;;1.70;;
3777;SDS011;1904;50.076;8.660;2023-04-25T21:13:07;4.23;;;1.50;;
3777;SDS011;1904;50.076;8.660;2023-04-25T21:15:43;6.63;;;1.70;;
3777;SDS011;1904;50.076;8.660;2023-04-25T21:18:25;4.00;;;1.80;;
3777;SDS011;1904;50.076;8.660;2023-04-25T21:21:07;3.37;;;1.97;;
3777;SDS011;1904;50.076;8.660;2023-04-25T21:23:37;5.97;;;4.23;;
3777;SDS011;1904;50.076;8.660;2023-04-25T21:26:07;8.07;;;2.87;;
3777;SDS011;1904;50.076;8.660;2023-04-25T21:28:43;2.97;;;2.13;;
3777;SDS011;1904;50.076;8.660;2023-04-25T21:31:25;8.53;;;1.57;;
3777;SDS011;1904;50.076;8.660;2023-04-25T21:33:51;4.53;;;1.97;;
3777;SDS011;1904;50.076;8.660;2023-04-25T21:39:08;2.77;;;1.80;;
3777;SDS011;1904;50.076;8.660;2023-04-25T21:41:38;1.93;;;1.63;;
3777;SDS011;1904;50.076;8.660;2023-04-25T21:44:05;2.63;;;2.43;;
3777;SDS011;1904;50.076;8.660;2023-04-25T21:46:31;4.67;;;2.30;;
3777;SDS011;1904;50.076;8.660;2023-04-25T21:48:57;4.90;;;2.27;;
3777;SDS011;1904;50.076;8.660;2023-04-25T21:51:25;3.03;;;2.33;;
3777;SDS011;1904;50.076;8.660;2023-04-25T21:53:51;3.63;;;1.80;;
3777;SDS011;1904;50.076;8.660;2023-04-25T21:59:25;2.97;;;2.47;;
3777;SDS011;1904;50.076;8.660;2023-04-25T22:01:51;5.27;;;2.60;;
3777;SDS011;1904;50.076;8.660;2023-04-25T22:04:19;5.67;;;2.17;;
3777;SDS011;1904;50.076;8.660;2023-04-25T22:06:55;9.80;;;2.37;;
3777;SDS011;1904;50.076;8.660;2023-04-25T22:09:21;3.60;;;2.53;;
3777;SDS011;1904;50.076;8.660;2023-04-25T22:11:50;5.07;;;2.43;;
3777;SDS011;1904;50.076;8.660;2023-04-25T22:14:17;4.33;;;2.70;;
3777;SDS011;1904;50.076;8.660;2023-04-25T22:16:49;12.23;;;2.33;;
3777;SDS011;1904;50.076;8.660;2023-04-25T22:19:15;3.97;;;2.40;;
3777;SDS011;1904;50.076;8.660;2023-04-25T22:21:41;2.57;;;2.37;;
3777;SDS011;1904;50.076;8.660;2023-04-25T22:24:07;4.20;;;2.30;;
3777;SDS011;1904;50.076;8.660;2023-04-25T22:26:33;2.63;;;2.00;;
3777;SDS011;1904;50.076;8.660;2023-04-25T22:29:01;4.20;;;2.27;;
3777;SDS011;1904;50.076;8.660;2023-04-25T22:31:27;3.00;;;2.03;;
3777;SDS011;1904;50.076;8.660;2023-04-25T22:33:53;10.10;;;2.57;;
3777;SDS011;1904;50.076;8.660;2023-04-25T22:36:19;3.10;;;1.90;;
3777;SDS011;1904;50.076;8.660;2023-04-25T22:38:48;2.93;;;1.90;;
3777;SDS011;1904;50.076;8.660;2023-04-25T22:41:14;2.93;;;1.90;;
3777;SDS011;1904;50.076;8.660;2023-04-25T22:46:31;7.23;;;2.17;;
3777;SDS011;1904;50.076;8.660;2023-04-25T22:51:55;2.47;;;2.03;;
3777;SDS011;1904;50.076;8.660;2023-04-25T22:54:25;8.53;;;2.70;;
3777;SDS011;1904;50.076;8.660;2023-04-25T22:56:55;5.23;;;2.33;;
3777;SDS011;1904;50.076;8.660;2023-04-25T22:59:25;8.33;;;2.60;;
3777;SDS011;1904;50.076;8.660;2023-04-25T23:01:51;9.50;;;2.60;;
3777;SDS011;1904;50.076;8.660;2023-04-25T23:04:25;6.50;;;2.30;;
3777;SDS011;1904;50.076;8.660;2023-04-25T23:06:55;5.53;;;2.23;;
3777;SDS011;1904;50.076;8.660;2023-04-25T23:09:25;7.17;;;2.40;;
3777;SDS011;1904;50.076;8.660;2023-04-25T23:14:48;4.87;;;2.37;;
3777;SDS011;1904;50.076;8.660;2023-04-25T23:17:25;2.10;;;1.90;;